SVR6509 UWLL-UMKK
Flight info
| Callsign | SVR6509 |
|---|---|
| Flight time | 3h 14m |
| Altitude | 34000 |
| Route | ARPUD1M ARPUD T750 OKSUD T787 OTKOL T784 ROKUR P164 ODATI T561 ATLUM DCT ARANS/N0453F340 DCT PIDIN DCT PISIM DCT PIRUX DCT PIVAX/N0452F350 DCT GARSO DCT AGONA DCT TURIP TURIP3G |
| Aircraft | A321/M-SDE3FGHIRWY/LB1 |
Departure
| Time | 2026-04-24 13:22 |
|---|---|
| Airport | Ulyanovsk Baratayevka Airport (UWLL) |
Arrival
| Time | 2026-04-24 16:36 |
|---|---|
| Airport | Khrabrovo Airport (UMKK) |
| Time | Latitude | Longitude | Altitude | Speed | Heading |
|---|---|---|---|---|---|
| 2026-04-24 13:06 | 54.28681 | 48.22966 | 366 ft | 0 kts | 31° |
| 2026-04-24 13:16 | 54.28697 | 48.22983 | 369 ft | 8 kts | 38° |
| 2026-04-24 13:17 | 54.28691 | 48.23074 | 373 ft | 9 kts | 117° |
| 2026-04-24 13:17 | 54.28638 | 48.23119 | 370 ft | 10 kts | 191° |
| 2026-04-24 13:17 | 54.28565 | 48.23135 | 372 ft | 12 kts | 127° |
| 2026-04-24 13:17 | 54.28516 | 48.23274 | 373 ft | 17 kts | 116° |
| 2026-04-24 13:18 | 54.28452 | 48.23469 | 377 ft | 20 kts | 124° |
| 2026-04-24 13:18 | 54.28380 | 48.23660 | 383 ft | 20 kts | 123° |
| 2026-04-24 13:18 | 54.28352 | 48.23735 | 385 ft | 0 kts | 122° |
| 2026-04-24 13:19 | 54.28351 | 48.23736 | 385 ft | 1 kts | 122° |
| 2026-04-24 13:19 | 54.28333 | 48.23786 | 386 ft | 12 kts | 122° |
| 2026-04-24 13:19 | 54.28268 | 48.23891 | 388 ft | 14 kts | 184° |
| 2026-04-24 13:19 | 54.28217 | 48.23847 | 388 ft | 0 kts | 213° |
| 2026-04-24 13:20 | 54.28185 | 48.23813 | 389 ft | 22 kts | 212° |
| 2026-04-24 13:21 | 54.27862 | 48.23472 | 398 ft | 83 kts | 212° |
| 2026-04-24 13:21 | 54.27255 | 48.22824 | 412 ft | 128 kts | 212° |
| 2026-04-24 13:21 | 54.26361 | 48.21902 | 540 ft | 154 kts | 208° |
| 2026-04-24 13:21 | 54.25433 | 48.20972 | 1001 ft | 153 kts | 208° |
| 2026-04-24 13:22 | 54.24536 | 48.20001 | 1521 ft | 155 kts | 207° |
| 2026-04-24 13:22 | 54.23572 | 48.18957 | 1798 ft | 170 kts | 206° |
| 2026-04-24 13:22 | 54.22519 | 48.17824 | 1947 ft | 190 kts | 207° |
| 2026-04-24 13:22 | 54.21331 | 48.16488 | 2205 ft | 216 kts | 216° |
| 2026-04-24 13:23 | 54.20527 | 48.14129 | 2473 ft | 251 kts | 256° |
| 2026-04-24 13:23 | 54.20775 | 48.11038 | 3037 ft | 273 kts | 291° |
| 2026-04-24 13:23 | 54.21800 | 48.08248 | 3777 ft | 281 kts | 304° |
| 2026-04-24 13:23 | 54.23072 | 48.05682 | 4567 ft | 284 kts | 307° |
| 2026-04-24 13:24 | 54.23957 | 48.03979 | 5069 ft | 285 kts | 307° |
| 2026-04-24 13:24 | 54.25283 | 48.01342 | 5846 ft | 287 kts | 305° |
| 2026-04-24 13:24 | 54.26532 | 47.98673 | 6538 ft | 289 kts | 303° |
| 2026-04-24 13:24 | 54.27754 | 47.95875 | 7247 ft | 291 kts | 301° |
| 2026-04-24 13:25 | 54.28942 | 47.93024 | 7963 ft | 292 kts | 301° |
| 2026-04-24 13:25 | 54.30108 | 47.90150 | 8664 ft | 295 kts | 300° |
| 2026-04-24 13:25 | 54.31282 | 47.87216 | 9367 ft | 297 kts | 300° |
| 2026-04-24 13:25 | 54.32459 | 47.84257 | 9780 ft | 310 kts | 300° |
| 2026-04-24 13:26 | 54.33691 | 47.81143 | 9916 ft | 329 kts | 300° |
| 2026-04-24 13:26 | 54.35003 | 47.77829 | 10042 ft | 349 kts | 301° |
| 2026-04-24 13:26 | 54.36451 | 47.74186 | 10184 ft | 367 kts | 301° |
| 2026-04-24 13:26 | 54.37950 | 47.70419 | 10330 ft | 383 kts | 301° |
| 2026-04-24 13:27 | 54.39467 | 47.66618 | 10737 ft | 389 kts | 301° |
| 2026-04-24 13:27 | 54.41001 | 47.62777 | 11261 ft | 392 kts | 301° |
| 2026-04-24 13:27 | 54.42555 | 47.58881 | 11778 ft | 395 kts | 301° |
| 2026-04-24 13:27 | 54.44123 | 47.54933 | 12320 ft | 397 kts | 301° |
| 2026-04-24 13:28 | 54.45700 | 47.50945 | 12830 ft | 400 kts | 301° |
| 2026-04-24 13:28 | 54.47287 | 47.46921 | 13302 ft | 403 kts | 301° |
| 2026-04-24 13:28 | 54.48868 | 47.42908 | 13730 ft | 405 kts | 301° |
| 2026-04-24 13:28 | 54.50317 | 47.39231 | 14097 ft | 407 kts | 301° |
| 2026-04-24 13:29 | 54.51905 | 47.35185 | 14502 ft | 409 kts | 301° |
| 2026-04-24 13:29 | 54.53499 | 47.31112 | 14896 ft | 411 kts | 301° |
| 2026-04-24 13:29 | 54.55128 | 47.26951 | 15310 ft | 413 kts | 301° |
| 2026-04-24 13:29 | 54.56764 | 47.22769 | 15710 ft | 415 kts | 301° |
| 2026-04-24 13:30 | 54.58373 | 47.18646 | 16124 ft | 417 kts | 301° |
| 2026-04-24 13:30 | 54.60015 | 47.14435 | 16531 ft | 419 kts | 301° |
| 2026-04-24 13:30 | 54.61668 | 47.10190 | 16953 ft | 421 kts | 301° |
| 2026-04-24 13:30 | 54.63304 | 47.05979 | 17379 ft | 423 kts | 301° |
| 2026-04-24 13:31 | 54.64946 | 47.01743 | 17802 ft | 425 kts | 301° |
| 2026-04-24 13:31 | 54.66621 | 46.97416 | 18195 ft | 427 kts | 301° |
| 2026-04-24 13:31 | 54.68272 | 46.93146 | 18569 ft | 429 kts | 301° |
| 2026-04-24 13:31 | 54.69935 | 46.88831 | 18963 ft | 432 kts | 301° |
| 2026-04-24 13:32 | 54.71598 | 46.84499 | 19333 ft | 434 kts | 301° |
| 2026-04-24 13:32 | 54.73291 | 46.80087 | 19716 ft | 436 kts | 301° |
| 2026-04-24 13:32 | 54.74973 | 46.75700 | 20097 ft | 438 kts | 301° |
| 2026-04-24 13:32 | 54.76651 | 46.71310 | 20466 ft | 440 kts | 301° |
| 2026-04-24 13:33 | 54.78349 | 46.66861 | 20837 ft | 442 kts | 301° |
| 2026-04-24 13:33 | 54.80048 | 46.62410 | 21201 ft | 444 kts | 301° |
| 2026-04-24 13:33 | 54.81777 | 46.57890 | 21577 ft | 446 kts | 302° |
| 2026-04-24 13:33 | 54.83585 | 46.53490 | 21944 ft | 449 kts | 304° |
| 2026-04-24 13:34 | 54.85509 | 46.49189 | 22299 ft | 451 kts | 307° |
| 2026-04-24 13:34 | 54.86848 | 46.46325 | 22540 ft | 453 kts | 307° |
| 2026-04-24 13:34 | 54.88863 | 46.42084 | 22881 ft | 456 kts | 308° |
| 2026-04-24 13:34 | 54.90875 | 46.37840 | 23210 ft | 458 kts | 307° |
| 2026-04-24 13:35 | 54.92882 | 46.33537 | 23486 ft | 460 kts | 307° |
| 2026-04-24 13:35 | 54.94908 | 46.29112 | 23752 ft | 462 kts | 306° |
| 2026-04-24 13:35 | 54.96921 | 46.24637 | 24009 ft | 464 kts | 306° |
| 2026-04-24 13:35 | 54.98896 | 46.20206 | 24244 ft | 465 kts | 306° |
| 2026-04-24 13:36 | 55.00877 | 46.15748 | 24467 ft | 467 kts | 306° |
| 2026-04-24 13:36 | 55.02881 | 46.11241 | 24691 ft | 469 kts | 306° |
| 2026-04-24 13:36 | 55.04906 | 46.06693 | 24897 ft | 471 kts | 306° |
| 2026-04-24 13:36 | 55.06914 | 46.02191 | 25103 ft | 472 kts | 306° |
| 2026-04-24 13:37 | 55.08946 | 45.97638 | 25308 ft | 473 kts | 306° |
| 2026-04-24 13:37 | 55.10987 | 45.93061 | 25584 ft | 473 kts | 306° |
| 2026-04-24 13:37 | 55.13005 | 45.88528 | 25854 ft | 472 kts | 306° |
| 2026-04-24 13:37 | 55.14978 | 45.84087 | 26114 ft | 472 kts | 306° |
| 2026-04-24 13:38 | 55.17031 | 45.79446 | 26372 ft | 472 kts | 306° |
| 2026-04-24 13:38 | 55.19034 | 45.74907 | 26639 ft | 472 kts | 306° |
| 2026-04-24 13:38 | 55.21039 | 45.70354 | 26901 ft | 471 kts | 306° |
| 2026-04-24 13:38 | 55.23039 | 45.65809 | 27153 ft | 471 kts | 306° |
| 2026-04-24 13:39 | 55.25032 | 45.61267 | 27413 ft | 471 kts | 306° |
| 2026-04-24 13:39 | 55.27022 | 45.56723 | 27665 ft | 471 kts | 305° |
| 2026-04-24 13:39 | 55.29042 | 45.52106 | 27916 ft | 470 kts | 305° |
| 2026-04-24 13:39 | 55.31033 | 45.47548 | 28175 ft | 470 kts | 305° |
| 2026-04-24 13:40 | 55.33048 | 45.42923 | 28407 ft | 470 kts | 305° |
| 2026-04-24 13:40 | 55.35030 | 45.38366 | 28667 ft | 470 kts | 305° |
| 2026-04-24 13:40 | 55.37013 | 45.33797 | 28914 ft | 469 kts | 305° |
| 2026-04-24 13:40 | 55.39006 | 45.29204 | 29142 ft | 469 kts | 305° |
| 2026-04-24 13:41 | 55.40997 | 45.24607 | 29392 ft | 469 kts | 305° |
| 2026-04-24 13:41 | 55.42997 | 45.19981 | 29587 ft | 469 kts | 305° |
| 2026-04-24 13:41 | 55.44978 | 45.15385 | 29769 ft | 469 kts | 305° |
| 2026-04-24 13:41 | 55.46942 | 45.10818 | 29945 ft | 468 kts | 305° |
| 2026-04-24 13:42 | 55.48906 | 45.06232 | 30120 ft | 469 kts | 305° |
| 2026-04-24 13:42 | 55.50892 | 45.01576 | 30300 ft | 468 kts | 305° |
| 2026-04-24 13:42 | 55.52882 | 44.96909 | 30478 ft | 468 kts | 304° |
| 2026-04-24 13:42 | 55.54486 | 44.92664 | 30625 ft | 466 kts | 297° |
| 2026-04-24 13:43 | 55.55868 | 44.87525 | 30787 ft | 463 kts | 288° |
| 2026-04-24 13:43 | 55.56790 | 44.82097 | 30944 ft | 461 kts | 279° |
| 2026-04-24 13:43 | 55.57236 | 44.76518 | 31101 ft | 458 kts | 271° |
| 2026-04-24 13:43 | 55.57380 | 44.70800 | 31255 ft | 458 kts | 270° |
| 2026-04-24 13:44 | 55.57511 | 44.65505 | 31425 ft | 458 kts | 270° |
| 2026-04-24 13:44 | 55.57660 | 44.59710 | 31617 ft | 458 kts | 270° |
| 2026-04-24 13:44 | 55.57812 | 44.53882 | 31783 ft | 458 kts | 271° |
| 2026-04-24 13:44 | 55.57956 | 44.48226 | 31947 ft | 458 kts | 270° |
| 2026-04-24 13:45 | 55.58050 | 44.44455 | 32054 ft | 458 kts | 270° |
| 2026-04-24 13:45 | 55.58184 | 44.38826 | 32209 ft | 458 kts | 270° |
| 2026-04-24 13:45 | 55.58315 | 44.33116 | 32355 ft | 458 kts | 270° |
| 2026-04-24 13:45 | 55.58444 | 44.27349 | 32522 ft | 458 kts | 270° |
| 2026-04-24 13:46 | 55.58567 | 44.21711 | 32670 ft | 459 kts | 271° |
| 2026-04-24 13:46 | 55.58689 | 44.16078 | 32815 ft | 459 kts | 271° |
| 2026-04-24 13:46 | 55.58811 | 44.10368 | 32970 ft | 459 kts | 271° |
| 2026-04-24 13:46 | 55.58929 | 44.04740 | 33105 ft | 459 kts | 271° |
| 2026-04-24 13:47 | 55.59047 | 43.99009 | 33261 ft | 459 kts | 270° |
| 2026-04-24 13:47 | 55.59158 | 43.93301 | 33393 ft | 459 kts | 271° |
| 2026-04-24 13:47 | 55.59564 | 43.82035 | 33415 ft | 460 kts | 279° |
| 2026-04-24 13:48 | 55.61670 | 43.71283 | 33417 ft | 463 kts | 298° |
| 2026-04-24 13:48 | 55.64920 | 43.61364 | 33415 ft | 463 kts | 299° |
| 2026-04-24 13:49 | 55.68181 | 43.51331 | 33430 ft | 463 kts | 298° |
| 2026-04-24 13:49 | 55.71376 | 43.41435 | 33437 ft | 463 kts | 298° |
| 2026-04-24 13:50 | 55.72655 | 43.37488 | 33435 ft | 463 kts | 298° |
| 2026-04-24 13:50 | 55.75887 | 43.27459 | 33444 ft | 462 kts | 298° |
| 2026-04-24 13:51 | 55.79106 | 43.17366 | 33453 ft | 462 kts | 299° |
| 2026-04-24 13:51 | 55.82802 | 43.07761 | 33456 ft | 462 kts | 304° |
| 2026-04-24 13:52 | 55.85926 | 42.99872 | 33458 ft | 461 kts | 304° |
| 2026-04-24 13:52 | 55.89649 | 42.90406 | 33465 ft | 461 kts | 304° |
| 2026-04-24 13:53 | 55.93340 | 42.80952 | 33474 ft | 460 kts | 304° |
| 2026-04-24 13:53 | 55.97027 | 42.71465 | 33477 ft | 459 kts | 304° |
| 2026-04-24 13:54 | 56.00713 | 42.61967 | 33485 ft | 459 kts | 304° |
| 2026-04-24 13:54 | 56.04373 | 42.52511 | 33490 ft | 459 kts | 304° |
| 2026-04-24 13:55 | 56.08007 | 42.42759 | 33496 ft | 458 kts | 303° |
| 2026-04-24 13:55 | 56.11467 | 42.33176 | 33502 ft | 458 kts | 303° |
| 2026-04-24 13:56 | 56.14950 | 42.23511 | 33506 ft | 458 kts | 303° |
| 2026-04-24 13:56 | 56.18391 | 42.14010 | 33509 ft | 457 kts | 303° |
| 2026-04-24 13:57 | 56.22001 | 42.04590 | 33514 ft | 457 kts | 307° |
| 2026-04-24 13:57 | 56.24342 | 41.99150 | 33518 ft | 456 kts | 309° |
| 2026-04-24 13:58 | 56.27908 | 41.91151 | 33520 ft | 456 kts | 309° |
| 2026-04-24 13:58 | 56.30966 | 41.83952 | 33507 ft | 449 kts | 303° |
| 2026-04-24 13:59 | 56.34651 | 41.75082 | 33495 ft | 453 kts | 309° |
| 2026-04-24 13:59 | 56.38684 | 41.65865 | 33523 ft | 453 kts | 308° |
| 2026-04-24 14:00 | 56.42594 | 41.56696 | 33532 ft | 453 kts | 308° |
| 2026-04-24 14:00 | 56.46368 | 41.47630 | 33534 ft | 453 kts | 308° |
| 2026-04-24 14:01 | 56.50092 | 41.38663 | 33543 ft | 452 kts | 308° |
| 2026-04-24 14:01 | 56.53896 | 41.29497 | 33546 ft | 452 kts | 308° |
| 2026-04-24 14:02 | 56.57632 | 41.20486 | 33545 ft | 452 kts | 308° |
| 2026-04-24 14:02 | 56.61336 | 41.10951 | 33548 ft | 452 kts | 299° |
| 2026-04-24 14:03 | 56.63592 | 41.00163 | 33552 ft | 454 kts | 288° |
| 2026-04-24 14:03 | 56.65456 | 40.89301 | 33549 ft | 454 kts | 288° |
| 2026-04-24 14:04 | 56.67354 | 40.78262 | 33546 ft | 454 kts | 288° |
| 2026-04-24 14:04 | 56.69253 | 40.67135 | 33546 ft | 454 kts | 288° |
| 2026-04-24 14:05 | 56.71133 | 40.56057 | 33549 ft | 454 kts | 288° |
| 2026-04-24 14:05 | 56.72717 | 40.46654 | 33555 ft | 454 kts | 288° |
| 2026-04-24 14:06 | 56.74552 | 40.35668 | 33554 ft | 454 kts | 288° |
| 2026-04-24 14:06 | 56.76393 | 40.24576 | 33562 ft | 454 kts | 288° |
| 2026-04-24 14:07 | 56.78223 | 40.13487 | 33564 ft | 454 kts | 288° |
| 2026-04-24 14:07 | 56.80004 | 40.02621 | 33569 ft | 453 kts | 288° |
| 2026-04-24 14:08 | 56.81813 | 39.91529 | 33568 ft | 453 kts | 288° |
| 2026-04-24 14:08 | 56.83608 | 39.80480 | 33570 ft | 453 kts | 289° |
| 2026-04-24 14:09 | 56.85419 | 39.69383 | 33575 ft | 452 kts | 289° |
| 2026-04-24 14:09 | 56.87198 | 39.58355 | 33576 ft | 452 kts | 289° |
| 2026-04-24 14:10 | 56.88945 | 39.47365 | 33571 ft | 452 kts | 289° |
| 2026-04-24 14:10 | 56.90764 | 39.35897 | 33579 ft | 452 kts | 289° |
| 2026-04-24 14:11 | 56.92497 | 39.24940 | 33573 ft | 451 kts | 289° |
| 2026-04-24 14:12 | 56.95119 | 39.08170 | 33570 ft | 451 kts | 289° |
| 2026-04-24 14:12 | 56.96857 | 38.96972 | 33576 ft | 450 kts | 289° |
| 2026-04-24 14:13 | 56.98318 | 38.87519 | 33571 ft | 450 kts | 289° |
| 2026-04-24 14:13 | 57.00020 | 38.76392 | 33581 ft | 450 kts | 289° |
| 2026-04-24 14:14 | 57.01719 | 38.65226 | 33580 ft | 449 kts | 289° |
| 2026-04-24 14:14 | 57.04263 | 38.48413 | 33589 ft | 449 kts | 289° |
| 2026-04-24 14:15 | 57.05946 | 38.37196 | 33591 ft | 448 kts | 289° |
| 2026-04-24 14:15 | 57.07619 | 38.25950 | 33589 ft | 448 kts | 289° |
| 2026-04-24 14:16 | 57.09270 | 38.14735 | 33589 ft | 447 kts | 289° |
| 2026-04-24 14:17 | 57.11732 | 37.97955 | 33592 ft | 447 kts | 289° |
| 2026-04-24 14:17 | 57.14139 | 37.81291 | 33592 ft | 446 kts | 289° |
| 2026-04-24 14:18 | 57.15462 | 37.72034 | 33600 ft | 446 kts | 289° |
| 2026-04-24 14:18 | 57.17252 | 37.61051 | 33597 ft | 441 kts | 296° |
| 2026-04-24 14:19 | 57.19554 | 37.50422 | 33601 ft | 441 kts | 296° |
| 2026-04-24 14:19 | 57.21781 | 37.40045 | 33604 ft | 440 kts | 296° |
| 2026-04-24 14:20 | 57.24076 | 37.29252 | 33606 ft | 440 kts | 296° |
| 2026-04-24 14:20 | 57.26308 | 37.18669 | 33619 ft | 439 kts | 296° |
| 2026-04-24 14:21 | 57.28525 | 37.08139 | 33621 ft | 439 kts | 296° |
| 2026-04-24 14:21 | 57.30760 | 36.97494 | 33623 ft | 438 kts | 296° |
| 2026-04-24 14:22 | 57.32968 | 36.86916 | 33625 ft | 437 kts | 296° |
| 2026-04-24 14:23 | 57.36223 | 36.71157 | 33629 ft | 437 kts | 296° |
| 2026-04-24 14:23 | 57.38391 | 36.60521 | 33631 ft | 436 kts | 296° |
| 2026-04-24 14:24 | 57.40569 | 36.49926 | 33633 ft | 435 kts | 296° |
| 2026-04-24 14:24 | 57.42729 | 36.39362 | 33638 ft | 435 kts | 296° |
| 2026-04-24 14:25 | 57.44498 | 36.30568 | 33639 ft | 434 kts | 296° |
| 2026-04-24 14:25 | 57.46966 | 36.18304 | 33639 ft | 433 kts | 296° |
| 2026-04-24 14:26 | 57.49080 | 36.07748 | 33640 ft | 433 kts | 297° |
| 2026-04-24 14:26 | 57.51185 | 35.97288 | 33640 ft | 432 kts | 297° |
| 2026-04-24 14:27 | 57.53318 | 35.86666 | 33644 ft | 432 kts | 297° |
| 2026-04-24 14:27 | 57.55398 | 35.76188 | 33644 ft | 431 kts | 297° |
| 2026-04-24 14:28 | 57.57458 | 35.65689 | 33646 ft | 431 kts | 297° |
| 2026-04-24 14:28 | 57.59191 | 35.56846 | 33649 ft | 430 kts | 297° |
| 2026-04-24 14:29 | 57.61263 | 35.46371 | 33669 ft | 429 kts | 298° |
| 2026-04-24 14:29 | 57.63442 | 35.35818 | 33659 ft | 428 kts | 299° |
| 2026-04-24 14:30 | 57.65596 | 35.25447 | 33659 ft | 427 kts | 299° |
| 2026-04-24 14:30 | 57.67707 | 35.15073 | 33658 ft | 427 kts | 298° |
| 2026-04-24 14:31 | 57.69801 | 35.04689 | 33654 ft | 426 kts | 299° |
| 2026-04-24 14:31 | 57.71737 | 34.94110 | 33658 ft | 432 kts | 293° |
| 2026-04-24 14:32 | 57.73207 | 34.83231 | 33661 ft | 431 kts | 293° |
| 2026-04-24 14:32 | 57.74670 | 34.72375 | 33664 ft | 430 kts | 293° |
| 2026-04-24 14:33 | 57.76141 | 34.61384 | 33664 ft | 429 kts | 293° |
| 2026-04-24 14:33 | 57.77588 | 34.50553 | 33668 ft | 428 kts | 293° |
| 2026-04-24 14:34 | 57.79014 | 34.39680 | 33666 ft | 427 kts | 293° |
| 2026-04-24 14:34 | 57.80427 | 34.28810 | 33684 ft | 426 kts | 294° |
| 2026-04-24 14:35 | 57.81835 | 34.18017 | 33679 ft | 425 kts | 294° |
| 2026-04-24 14:35 | 57.83236 | 34.07179 | 33674 ft | 424 kts | 294° |
| 2026-04-24 14:36 | 57.84610 | 33.96448 | 33669 ft | 423 kts | 293° |
| 2026-04-24 14:36 | 57.86040 | 33.85177 | 33665 ft | 422 kts | 294° |
| 2026-04-24 14:36 | 57.86859 | 33.80266 | 33664 ft | 410 kts | 303° |
| 2026-04-24 14:37 | 57.88154 | 33.75607 | 33667 ft | 398 kts | 312° |
| 2026-04-24 14:37 | 57.89835 | 33.71547 | 33666 ft | 387 kts | 321° |
| 2026-04-24 14:37 | 57.91747 | 33.67957 | 33666 ft | 385 kts | 322° |
| 2026-04-24 14:38 | 57.95566 | 33.60775 | 33664 ft | 385 kts | 321° |
| 2026-04-24 14:38 | 57.99343 | 33.53617 | 33661 ft | 385 kts | 321° |
| 2026-04-24 14:39 | 58.03130 | 33.46398 | 33658 ft | 384 kts | 321° |
| 2026-04-24 14:39 | 58.06894 | 33.39207 | 33663 ft | 384 kts | 321° |
| 2026-04-24 14:40 | 58.10686 | 33.31950 | 33661 ft | 383 kts | 321° |
| 2026-04-24 14:40 | 58.14426 | 33.24770 | 33656 ft | 383 kts | 321° |
| 2026-04-24 14:41 | 58.17590 | 33.18718 | 33652 ft | 382 kts | 321° |
| 2026-04-24 14:41 | 58.21328 | 33.11569 | 33650 ft | 382 kts | 321° |
| 2026-04-24 14:42 | 58.25108 | 33.04275 | 33651 ft | 382 kts | 321° |
| 2026-04-24 14:42 | 58.28824 | 32.97080 | 33656 ft | 381 kts | 321° |
| 2026-04-24 14:43 | 58.32520 | 32.89919 | 33655 ft | 381 kts | 321° |
| 2026-04-24 14:43 | 58.36289 | 32.82580 | 33658 ft | 381 kts | 321° |
| 2026-04-24 14:44 | 58.40006 | 32.75313 | 33662 ft | 380 kts | 321° |
| 2026-04-24 14:44 | 58.43796 | 32.67887 | 33671 ft | 380 kts | 321° |
| 2026-04-24 14:45 | 58.47521 | 32.60553 | 33671 ft | 379 kts | 320° |
| 2026-04-24 14:45 | 58.51194 | 32.53303 | 33680 ft | 379 kts | 320° |
| 2026-04-24 14:46 | 58.54782 | 32.46224 | 33672 ft | 378 kts | 320° |
| 2026-04-24 14:46 | 58.57998 | 32.39850 | 33680 ft | 378 kts | 320° |
| 2026-04-24 14:47 | 58.61682 | 32.32520 | 33677 ft | 377 kts | 320° |
| 2026-04-24 14:47 | 58.65385 | 32.25132 | 33682 ft | 376 kts | 320° |
| 2026-04-24 14:48 | 58.69062 | 32.17771 | 33686 ft | 375 kts | 320° |
| 2026-04-24 14:48 | 58.72709 | 32.10437 | 33675 ft | 375 kts | 320° |
| 2026-04-24 14:49 | 58.76382 | 32.03014 | 33671 ft | 374 kts | 320° |
| 2026-04-24 14:49 | 58.79877 | 31.95929 | 33686 ft | 373 kts | 320° |
| 2026-04-24 14:50 | 58.83481 | 31.88624 | 33683 ft | 372 kts | 320° |
| 2026-04-24 14:50 | 58.84970 | 31.85605 | 33682 ft | 372 kts | 320° |
| 2026-04-24 14:51 | 58.88545 | 31.78323 | 33679 ft | 371 kts | 320° |
| 2026-04-24 14:51 | 58.92085 | 31.71084 | 33675 ft | 371 kts | 320° |
| 2026-04-24 14:52 | 58.95677 | 31.63706 | 33676 ft | 371 kts | 320° |
| 2026-04-24 14:52 | 58.99247 | 31.56369 | 33670 ft | 371 kts | 320° |
| 2026-04-24 14:53 | 59.02804 | 31.49038 | 33670 ft | 371 kts | 319° |
| 2026-04-24 14:53 | 59.06314 | 31.41770 | 33671 ft | 370 kts | 319° |
| 2026-04-24 14:54 | 59.09871 | 31.34369 | 33671 ft | 370 kts | 319° |
| 2026-04-24 14:54 | 59.12837 | 31.28187 | 33671 ft | 369 kts | 319° |
| 2026-04-24 14:55 | 59.16336 | 31.20884 | 33670 ft | 369 kts | 319° |
| 2026-04-24 14:55 | 59.19837 | 31.13562 | 33665 ft | 369 kts | 319° |
| 2026-04-24 14:56 | 59.23361 | 31.06178 | 33661 ft | 369 kts | 319° |
| 2026-04-24 14:56 | 59.27059 | 30.98394 | 33663 ft | 369 kts | 319° |
| 2026-04-24 14:57 | 59.30557 | 30.90938 | 33659 ft | 371 kts | 316° |
| 2026-04-24 14:57 | 59.33052 | 30.81936 | 33658 ft | 392 kts | 298° |
| 2026-04-24 14:58 | 59.34053 | 30.76000 | 33657 ft | 392 kts | 297° |
| 2026-04-24 14:58 | 59.35771 | 30.65863 | 33658 ft | 392 kts | 298° |
| 2026-04-24 14:59 | 59.37236 | 30.57305 | 33653 ft | 392 kts | 298° |
| 2026-04-24 14:59 | 59.39009 | 30.46880 | 33655 ft | 392 kts | 297° |
| 2026-04-24 15:00 | 59.40638 | 30.37186 | 33653 ft | 393 kts | 297° |
| 2026-04-24 15:00 | 59.42348 | 30.26954 | 33659 ft | 393 kts | 297° |
| 2026-04-24 15:01 | 59.44067 | 30.16607 | 33658 ft | 393 kts | 297° |
| 2026-04-24 15:01 | 59.45790 | 30.06200 | 33663 ft | 393 kts | 297° |
| 2026-04-24 15:02 | 59.47483 | 29.95900 | 33666 ft | 393 kts | 296° |
| 2026-04-24 15:02 | 59.49147 | 29.85664 | 33667 ft | 393 kts | 296° |
| 2026-04-24 15:03 | 59.50829 | 29.75265 | 33673 ft | 393 kts | 296° |
| 2026-04-24 15:03 | 59.52492 | 29.64947 | 33681 ft | 393 kts | 296° |
| 2026-04-24 15:04 | 59.54146 | 29.54594 | 33682 ft | 393 kts | 296° |
| 2026-04-24 15:04 | 59.55788 | 29.44253 | 33680 ft | 393 kts | 295° |
| 2026-04-24 15:05 | 59.57421 | 29.33878 | 33686 ft | 393 kts | 295° |
| 2026-04-24 15:05 | 59.59048 | 29.23479 | 33690 ft | 393 kts | 295° |
| 2026-04-24 15:06 | 59.60667 | 29.13069 | 33692 ft | 394 kts | 295° |
| 2026-04-24 15:06 | 59.62275 | 29.02626 | 33695 ft | 395 kts | 294° |
| 2026-04-24 15:07 | 59.63410 | 28.93710 | 33698 ft | 399 kts | 290° |
| 2026-04-24 15:07 | 59.64529 | 28.82959 | 33703 ft | 400 kts | 289° |
| 2026-04-24 15:08 | 59.65637 | 28.72029 | 33710 ft | 400 kts | 289° |
| 2026-04-24 15:08 | 59.66781 | 28.61252 | 33711 ft | 400 kts | 290° |
| 2026-04-24 15:09 | 59.67941 | 28.50487 | 33716 ft | 401 kts | 290° |
| 2026-04-24 15:09 | 59.69123 | 28.39416 | 33721 ft | 401 kts | 289° |
| 2026-04-24 15:10 | 59.70251 | 28.28633 | 33724 ft | 402 kts | 289° |
| 2026-04-24 15:10 | 59.71380 | 28.17707 | 33737 ft | 402 kts | 289° |
| 2026-04-24 15:11 | 59.72499 | 28.06829 | 33734 ft | 403 kts | 289° |
| 2026-04-24 15:11 | 59.73630 | 27.95802 | 33736 ft | 403 kts | 289° |
| 2026-04-24 15:12 | 59.74737 | 27.84905 | 33737 ft | 403 kts | 288° |
| 2026-04-24 15:12 | 59.76383 | 27.68374 | 33737 ft | 404 kts | 288° |
| 2026-04-24 15:13 | 59.77558 | 27.57310 | 33735 ft | 403 kts | 289° |
| 2026-04-24 15:13 | 59.78844 | 27.46418 | 33740 ft | 403 kts | 290° |
| 2026-04-24 15:14 | 59.80122 | 27.35490 | 33737 ft | 404 kts | 289° |
| 2026-04-24 15:14 | 59.81145 | 27.26440 | 33745 ft | 404 kts | 289° |
| 2026-04-24 15:15 | 59.82358 | 27.15503 | 33748 ft | 405 kts | 289° |
| 2026-04-24 15:15 | 59.83571 | 27.04497 | 33753 ft | 405 kts | 288° |
| 2026-04-24 15:16 | 59.84774 | 26.93545 | 33751 ft | 406 kts | 288° |
| 2026-04-24 15:16 | 59.86000 | 26.82270 | 33751 ft | 406 kts | 288° |
| 2026-04-24 15:17 | 59.87187 | 26.71219 | 33751 ft | 406 kts | 288° |
| 2026-04-24 15:17 | 59.88367 | 26.60199 | 33755 ft | 406 kts | 288° |
| 2026-04-24 15:18 | 59.89150 | 26.52842 | 33752 ft | 406 kts | 288° |
| 2026-04-24 15:18 | 59.90235 | 26.42591 | 33748 ft | 407 kts | 287° |
| 2026-04-24 15:19 | 59.91386 | 26.31541 | 33748 ft | 407 kts | 287° |
| 2026-04-24 15:19 | 59.92529 | 26.20493 | 33754 ft | 408 kts | 287° |
| 2026-04-24 15:20 | 59.93662 | 26.09451 | 33749 ft | 409 kts | 286° |
| 2026-04-24 15:20 | 59.93730 | 25.97800 | 33749 ft | 425 kts | 266° |
| 2026-04-24 15:21 | 59.92394 | 25.86354 | 33743 ft | 429 kts | 263° |
| 2026-04-24 15:21 | 59.91012 | 25.74593 | 33744 ft | 429 kts | 263° |
| 2026-04-24 15:22 | 59.89880 | 25.64975 | 33749 ft | 429 kts | 263° |
| 2026-04-24 15:23 | 59.87556 | 25.45494 | 33743 ft | 430 kts | 263° |
| 2026-04-24 15:23 | 59.85443 | 25.28033 | 33749 ft | 431 kts | 262° |
| 2026-04-24 15:25 | 59.82080 | 25.00826 | 33755 ft | 432 kts | 262° |
| 2026-04-24 15:26 | 59.78458 | 24.72069 | 33767 ft | 432 kts | 261° |
| 2026-04-24 15:27 | 59.73835 | 24.36650 | 33765 ft | 433 kts | 259° |
| 2026-04-24 15:29 | 59.68598 | 24.03008 | 33773 ft | 433 kts | 258° |
| 2026-04-24 15:31 | 59.62638 | 23.64554 | 33783 ft | 434 kts | 257° |
| 2026-04-24 15:33 | 59.55358 | 23.18897 | 33812 ft | 436 kts | 255° |
| 2026-04-24 15:34 | 59.48902 | 22.91287 | 33823 ft | 440 kts | 248° |
| 2026-04-24 15:35 | 59.42259 | 22.63934 | 33836 ft | 440 kts | 247° |
| 2026-04-24 15:36 | 59.40040 | 22.54870 | 33842 ft | 440 kts | 247° |
| 2026-04-24 15:36 | 59.36030 | 22.38616 | 33852 ft | 440 kts | 246° |
| 2026-04-24 15:37 | 59.33334 | 22.27765 | 33850 ft | 440 kts | 246° |
| 2026-04-24 15:37 | 59.30610 | 22.16848 | 33860 ft | 440 kts | 246° |
| 2026-04-24 15:38 | 59.27898 | 22.06015 | 33863 ft | 440 kts | 246° |
| 2026-04-24 15:38 | 59.25150 | 21.95082 | 33863 ft | 440 kts | 246° |
| 2026-04-24 15:39 | 59.22498 | 21.84600 | 33865 ft | 440 kts | 245° |
| 2026-04-24 15:39 | 59.19782 | 21.73915 | 33870 ft | 440 kts | 245° |
| 2026-04-24 15:40 | 59.17056 | 21.63247 | 33870 ft | 440 kts | 245° |
| 2026-04-24 15:40 | 59.14314 | 21.52567 | 33877 ft | 440 kts | 245° |
| 2026-04-24 15:41 | 59.11546 | 21.41850 | 33885 ft | 440 kts | 245° |
| 2026-04-24 15:41 | 59.08707 | 21.30932 | 33893 ft | 440 kts | 245° |
| 2026-04-24 15:42 | 59.05253 | 21.20825 | 33905 ft | 444 kts | 227° |
| 2026-04-24 15:42 | 59.01150 | 21.14711 | 33892 ft | 449 kts | 211° |
| 2026-04-24 15:43 | 58.95197 | 21.10315 | 33888 ft | 452 kts | 201° |
| 2026-04-24 15:43 | 58.89172 | 21.06477 | 33883 ft | 453 kts | 201° |
| 2026-04-24 15:44 | 58.83195 | 21.02653 | 33886 ft | 453 kts | 201° |
| 2026-04-24 15:44 | 58.77213 | 20.98826 | 33885 ft | 453 kts | 201° |
| 2026-04-24 15:45 | 58.71030 | 20.94890 | 33890 ft | 453 kts | 201° |
| 2026-04-24 15:45 | 58.64830 | 20.90972 | 33898 ft | 454 kts | 201° |
| 2026-04-24 15:46 | 58.58737 | 20.87124 | 33903 ft | 454 kts | 201° |
| 2026-04-24 15:46 | 58.52637 | 20.83274 | 33904 ft | 454 kts | 201° |
| 2026-04-24 15:47 | 58.48982 | 20.80979 | 33904 ft | 454 kts | 201° |
| 2026-04-24 15:47 | 58.43913 | 20.77807 | 33893 ft | 454 kts | 201° |
| 2026-04-24 15:48 | 58.37699 | 20.73940 | 33897 ft | 454 kts | 201° |
| 2026-04-24 15:48 | 58.31605 | 20.70166 | 33892 ft | 455 kts | 201° |
| 2026-04-24 15:49 | 58.25491 | 20.66375 | 33903 ft | 455 kts | 201° |
| 2026-04-24 15:49 | 58.19410 | 20.62617 | 33895 ft | 455 kts | 201° |
| 2026-04-24 15:50 | 58.13469 | 20.58974 | 33901 ft | 455 kts | 201° |
| 2026-04-24 15:50 | 58.07273 | 20.55181 | 33903 ft | 455 kts | 202° |
| 2026-04-24 15:51 | 58.01713 | 20.51774 | 33905 ft | 455 kts | 202° |
| 2026-04-24 15:51 | 57.95646 | 20.48077 | 33911 ft | 455 kts | 202° |
| 2026-04-24 15:52 | 57.89617 | 20.44448 | 33914 ft | 455 kts | 202° |
| 2026-04-24 15:52 | 57.84577 | 20.41415 | 33913 ft | 455 kts | 202° |
| 2026-04-24 15:53 | 57.78499 | 20.37766 | 33917 ft | 455 kts | 202° |
| 2026-04-24 15:53 | 57.72412 | 20.34114 | 33917 ft | 455 kts | 202° |
| 2026-04-24 15:54 | 57.66351 | 20.30486 | 33920 ft | 455 kts | 202° |
| 2026-04-24 15:54 | 57.60285 | 20.26867 | 33920 ft | 455 kts | 202° |
| 2026-04-24 15:55 | 57.54174 | 20.23245 | 33917 ft | 455 kts | 202° |
| 2026-04-24 15:55 | 57.48100 | 20.19655 | 33921 ft | 455 kts | 202° |
| 2026-04-24 15:56 | 57.42103 | 20.16110 | 33917 ft | 455 kts | 202° |
| 2026-04-24 15:56 | 57.36012 | 20.12543 | 33911 ft | 455 kts | 202° |
| 2026-04-24 15:57 | 57.29961 | 20.09014 | 33917 ft | 455 kts | 202° |
| 2026-04-24 15:57 | 57.23884 | 20.05470 | 33927 ft | 456 kts | 202° |
| 2026-04-24 15:58 | 57.17753 | 20.01914 | 33931 ft | 456 kts | 202° |
| 2026-04-24 15:58 | 57.11942 | 19.98550 | 33932 ft | 456 kts | 202° |
| 2026-04-24 15:59 | 57.05768 | 19.94970 | 33930 ft | 456 kts | 202° |
| 2026-04-24 15:59 | 56.99548 | 19.92367 | 33923 ft | 465 kts | 188° |
| 2026-04-24 16:00 | 56.93016 | 19.93035 | 33926 ft | 472 kts | 178° |
| 2026-04-24 16:00 | 56.86474 | 19.94346 | 33924 ft | 472 kts | 178° |
| 2026-04-24 16:01 | 56.79931 | 19.95613 | 33926 ft | 473 kts | 178° |
| 2026-04-24 16:01 | 56.74556 | 19.96662 | 33928 ft | 473 kts | 178° |
| 2026-04-24 16:02 | 56.67949 | 19.97947 | 33919 ft | 474 kts | 178° |
| 2026-04-24 16:02 | 56.61308 | 19.99228 | 33939 ft | 475 kts | 178° |
| 2026-04-24 16:03 | 56.54583 | 20.00549 | 33946 ft | 476 kts | 178° |
| 2026-04-24 16:03 | 56.47936 | 20.01842 | 33944 ft | 477 kts | 178° |
| 2026-04-24 16:04 | 56.41241 | 20.03134 | 33945 ft | 478 kts | 178° |
| 2026-04-24 16:04 | 56.34575 | 20.04405 | 33941 ft | 479 kts | 178° |
| 2026-04-24 16:05 | 56.24608 | 20.06298 | 33930 ft | 480 kts | 178° |
| 2026-04-24 16:06 | 56.14616 | 20.08507 | 33921 ft | 486 kts | 170° |
| 2026-04-24 16:07 | 56.04905 | 20.14478 | 33927 ft | 491 kts | 163° |
| 2026-04-24 16:07 | 55.95230 | 20.20645 | 33924 ft | 492 kts | 164° |
| 2026-04-24 16:08 | 55.85452 | 20.26841 | 33929 ft | 494 kts | 163° |
| 2026-04-24 16:09 | 55.75639 | 20.33054 | 33919 ft | 496 kts | 163° |
| 2026-04-24 16:09 | 55.69035 | 20.37209 | 33919 ft | 497 kts | 163° |
| 2026-04-24 16:10 | 55.60342 | 20.42645 | 32945 ft | 502 kts | 163° |
| 2026-04-24 16:11 | 55.53688 | 20.46795 | 30136 ft | 513 kts | 163° |
| 2026-04-24 16:11 | 55.50223 | 20.48955 | 28353 ft | 517 kts | 163° |
| 2026-04-24 16:11 | 55.46850 | 20.51054 | 26378 ft | 514 kts | 163° |
| 2026-04-24 16:12 | 55.40095 | 20.54865 | 22016 ft | 508 kts | 172° |
| 2026-04-24 16:12 | 55.36611 | 20.55995 | 20400 ft | 491 kts | 168° |
| 2026-04-24 16:12 | 55.31284 | 20.60076 | 17845 ft | 469 kts | 145° |
| 2026-04-24 16:13 | 55.29053 | 20.63226 | 17160 ft | 442 kts | 137° |
| 2026-04-24 16:13 | 55.25751 | 20.69745 | 16491 ft | 385 kts | 124° |
| 2026-04-24 16:14 | 55.22804 | 20.76927 | 16078 ft | 334 kts | 123° |
| 2026-04-24 16:14 | 55.21499 | 20.80209 | 15961 ft | 323 kts | 123° |
| 2026-04-24 16:14 | 55.18977 | 20.86570 | 15440 ft | 311 kts | 123° |
| 2026-04-24 16:15 | 55.18176 | 20.88581 | 15284 ft | 309 kts | 123° |
| 2026-04-24 16:15 | 55.15511 | 20.95632 | 14720 ft | 300 kts | 116° |
| 2026-04-24 16:16 | 55.13580 | 21.02012 | 14242 ft | 297 kts | 114° |
| 2026-04-24 16:16 | 55.12559 | 21.05332 | 13989 ft | 297 kts | 123° |
| 2026-04-24 16:17 | 55.07180 | 21.09070 | 12934 ft | 283 kts | 199° |
| 2026-04-24 16:17 | 55.04062 | 21.05582 | 12169 ft | 261 kts | 240° |
| 2026-04-24 16:18 | 55.02973 | 20.99908 | 11413 ft | 242 kts | 277° |
| 2026-04-24 16:18 | 55.03966 | 20.94565 | 10659 ft | 230 kts | 309° |
| 2026-04-24 16:18 | 55.05074 | 20.92575 | 10290 ft | 227 kts | 324° |
| 2026-04-24 16:19 | 55.08015 | 20.90698 | 9522 ft | 228 kts | 355° |
| 2026-04-24 16:19 | 55.09572 | 20.90810 | 9137 ft | 229 kts | 3° |
| 2026-04-24 16:20 | 55.12720 | 20.91553 | 8406 ft | 227 kts | 7° |
| 2026-04-24 16:20 | 55.15245 | 20.94745 | 7653 ft | 243 kts | 60° |
| 2026-04-24 16:20 | 55.15566 | 20.97664 | 7281 ft | 253 kts | 91° |
| 2026-04-24 16:21 | 55.14323 | 21.03341 | 6569 ft | 258 kts | 110° |
| 2026-04-24 16:21 | 55.13593 | 21.06198 | 6251 ft | 257 kts | 113° |
| 2026-04-24 16:21 | 55.12672 | 21.08878 | 5906 ft | 258 kts | 124° |
| 2026-04-24 16:22 | 55.11575 | 21.11068 | 5695 ft | 256 kts | 135° |
| 2026-04-24 16:22 | 55.09216 | 21.14423 | 5475 ft | 259 kts | 141° |
| 2026-04-24 16:22 | 55.07806 | 21.16368 | 5344 ft | 258 kts | 141° |
| 2026-04-24 16:23 | 55.06401 | 21.18311 | 5209 ft | 258 kts | 142° |
| 2026-04-24 16:23 | 55.05082 | 21.19776 | 5102 ft | 256 kts | 153° |
| 2026-04-24 16:23 | 55.03398 | 21.20956 | 4987 ft | 255 kts | 166° |
| 2026-04-24 16:24 | 54.99986 | 21.21964 | 4725 ft | 252 kts | 174° |
| 2026-04-24 16:24 | 54.98359 | 21.22377 | 4597 ft | 251 kts | 174° |
| 2026-04-24 16:24 | 54.96651 | 21.22813 | 4461 ft | 250 kts | 174° |
| 2026-04-24 16:24 | 54.94872 | 21.22976 | 4326 ft | 248 kts | 186° |
| 2026-04-24 16:25 | 54.93265 | 21.22555 | 4201 ft | 245 kts | 198° |
| 2026-04-24 16:25 | 54.91695 | 21.21599 | 4075 ft | 243 kts | 206° |
| 2026-04-24 16:25 | 54.90212 | 21.20568 | 3948 ft | 243 kts | 205° |
| 2026-04-24 16:26 | 54.87223 | 21.18519 | 3692 ft | 242 kts | 205° |
| 2026-04-24 16:26 | 54.85681 | 21.17389 | 3568 ft | 240 kts | 212° |
| 2026-04-24 16:26 | 54.83278 | 21.13796 | 3311 ft | 232 kts | 237° |
| 2026-04-24 16:27 | 54.82270 | 21.11565 | 3189 ft | 232 kts | 237° |
| 2026-04-24 16:27 | 54.81266 | 21.09364 | 3048 ft | 232 kts | 238° |
| 2026-04-24 16:27 | 54.80558 | 21.06907 | 2920 ft | 222 kts | 262° |
| 2026-04-24 16:27 | 54.80480 | 21.04355 | 2798 ft | 215 kts | 284° |
| 2026-04-24 16:28 | 54.80956 | 21.01983 | 2661 ft | 205 kts | 304° |
| 2026-04-24 16:28 | 54.81857 | 21.00153 | 2548 ft | 191 kts | 323° |
| 2026-04-24 16:28 | 54.84185 | 20.98169 | 2290 ft | 184 kts | 338° |
| 2026-04-24 16:29 | 54.85329 | 20.97310 | 2177 ft | 182 kts | 337° |
| 2026-04-24 16:29 | 54.86538 | 20.96393 | 2075 ft | 180 kts | 337° |
| 2026-04-24 16:29 | 54.88843 | 20.94647 | 1968 ft | 179 kts | 337° |
| 2026-04-24 16:30 | 54.91103 | 20.92928 | 1970 ft | 180 kts | 337° |
| 2026-04-24 16:30 | 54.92253 | 20.92058 | 1964 ft | 179 kts | 337° |
| 2026-04-24 16:30 | 54.93394 | 20.91195 | 1970 ft | 180 kts | 337° |
| 2026-04-24 16:31 | 54.94480 | 20.89963 | 1998 ft | 187 kts | 320° |
| 2026-04-24 16:31 | 54.95213 | 20.88151 | 1969 ft | 187 kts | 300° |
| 2026-04-24 16:31 | 54.95499 | 20.86031 | 1974 ft | 171 kts | 278° |
| 2026-04-24 16:31 | 54.95438 | 20.84695 | 1957 ft | 159 kts | 266° |
| 2026-04-24 16:32 | 54.95087 | 20.82897 | 1972 ft | 152 kts | 252° |
| 2026-04-24 16:32 | 54.94656 | 20.81223 | 1979 ft | 148 kts | 253° |
| 2026-04-24 16:32 | 54.94249 | 20.79630 | 1979 ft | 145 kts | 254° |
| 2026-04-24 16:32 | 54.93836 | 20.78012 | 1949 ft | 146 kts | 254° |
| 2026-04-24 16:33 | 54.93422 | 20.76401 | 1830 ft | 145 kts | 254° |
| 2026-04-24 16:33 | 54.93008 | 20.74785 | 1648 ft | 147 kts | 253° |
| 2026-04-24 16:33 | 54.92593 | 20.73173 | 1456 ft | 145 kts | 253° |
| 2026-04-24 16:33 | 54.92192 | 20.71611 | 1258 ft | 145 kts | 252° |
| 2026-04-24 16:34 | 54.91781 | 20.70015 | 1059 ft | 144 kts | 252° |
| 2026-04-24 16:34 | 54.91418 | 20.68611 | 884 ft | 142 kts | 251° |
| 2026-04-24 16:34 | 54.91017 | 20.67051 | 683 ft | 141 kts | 251° |
| 2026-04-24 16:34 | 54.90615 | 20.65513 | 489 ft | 140 kts | 250° |
| 2026-04-24 16:35 | 54.90221 | 20.63958 | 250 ft | 138 kts | 250° |
| 2026-04-24 16:35 | 54.89846 | 20.62492 | 113 ft | 136 kts | 249° |
| 2026-04-24 16:35 | 54.89472 | 20.61076 | 25 ft | 122 kts | 247° |
| 2026-04-24 16:35 | 54.89204 | 20.60000 | 21 ft | 68 kts | 246° |
| 2026-04-24 16:36 | 54.89063 | 20.59461 | 25 ft | 33 kts | 246° |
| 2026-04-24 16:36 | 54.88960 | 20.59159 | 25 ft | 22 kts | 229° |
| 2026-04-24 16:36 | 54.88872 | 20.59080 | 25 ft | 11 kts | 203° |
| 2026-04-24 16:36 | 54.88824 | 20.59041 | 26 ft | 0 kts | 207° |
| 2026-04-24 16:38 | 54.88796 | 20.59016 | 28 ft | 12 kts | 206° |
| 2026-04-24 16:38 | 54.88705 | 20.58894 | 26 ft | 16 kts | 239° |
| 2026-04-24 16:39 | 54.88640 | 20.58761 | 27 ft | 16 kts | 179° |
| 2026-04-24 16:39 | 54.88557 | 20.58816 | 27 ft | 11 kts | 157° |
| 2026-04-24 16:39 | 54.88510 | 20.58759 | 27 ft | 8 kts | 245° |
| 2026-04-24 16:39 | 54.88488 | 20.58674 | 27 ft | 8 kts | 246° |
| 2026-04-24 16:40 | 54.88467 | 20.58593 | 27 ft | 7 kts | 243° |
| 2026-04-24 16:40 | 54.88435 | 20.58564 | 27 ft | 5 kts | 183° |
| 2026-04-24 16:40 | 54.88408 | 20.58579 | 27 ft | 3 kts | 155° |
| 2026-04-24 16:40 | 54.88405 | 20.58582 | 27 ft | 2 kts | 155° |
| 2026-04-24 16:41 | 54.88403 | 20.58583 | 27 ft | 0 kts | 155° |